sensor_id;sensor_type;location;lat;lon;timestamp;P1;durP1;ratioP1;P2;durP2;ratioP2
68523;SDS011;55524;51.380;13.372;2023-12-20T00:02:07;2.50;;;2.30;;
68523;SDS011;55524;51.380;13.372;2023-12-20T00:04:34;2.60;;;2.40;;
68523;SDS011;55524;51.380;13.372;2023-12-20T00:07:00;2.58;;;2.35;;
68523;SDS011;55524;51.380;13.372;2023-12-20T00:09:27;2.47;;;2.17;;
68523;SDS011;55524;51.380;13.372;2023-12-20T00:11:55;2.50;;;2.25;;
68523;SDS011;55524;51.380;13.372;2023-12-20T00:14:22;2.55;;;2.08;;
68523;SDS011;55524;51.380;13.372;2023-12-20T00:16:48;2.55;;;2.30;;
68523;SDS011;55524;51.380;13.372;2023-12-20T00:19:14;2.58;;;2.35;;
68523;SDS011;55524;51.380;13.372;2023-12-20T00:21:41;3.45;;;2.20;;
68523;SDS011;55524;51.380;13.372;2023-12-20T00:24:07;2.80;;;2.50;;
68523;SDS011;55524;51.380;13.372;2023-12-20T00:26:34;2.60;;;2.40;;
68523;SDS011;55524;51.380;13.372;2023-12-20T00:29:00;2.97;;;2.67;;
68523;SDS011;55524;51.380;13.372;2023-12-20T00:31:26;2.80;;;2.60;;
68523;SDS011;55524;51.380;13.372;2023-12-20T00:33:53;2.70;;;2.50;;
68523;SDS011;55524;51.380;13.372;2023-12-20T00:36:19;2.70;;;2.45;;
68523;SDS011;55524;51.380;13.372;2023-12-20T00:38:46;2.55;;;2.35;;
68523;SDS011;55524;51.380;13.372;2023-12-20T00:41:13;2.92;;;2.67;;
68523;SDS011;55524;51.380;13.372;2023-12-20T00:43:39;2.80;;;2.58;;
68523;SDS011;55524;51.380;13.372;2023-12-20T00:46:05;3.35;;;3.05;;
68523;SDS011;55524;51.380;13.372;2023-12-20T00:48:32;3.88;;;2.95;;
68523;SDS011;55524;51.380;13.372;2023-12-20T00:50:58;3.38;;;2.80;;
68523;SDS011;55524;51.380;13.372;2023-12-20T00:53:24;4.45;;;3.03;;
68523;SDS011;55524;51.380;13.372;2023-12-20T00:55:50;3.58;;;3.25;;
68523;SDS011;55524;51.380;13.372;2023-12-20T00:58:17;4.10;;;3.53;;
68523;SDS011;55524;51.380;13.372;2023-12-20T01:00:43;6.53;;;3.97;;
68523;SDS011;55524;51.380;13.372;2023-12-20T01:03:10;3.83;;;3.40;;
68523;SDS011;55524;51.380;13.372;2023-12-20T01:05:37;4.95;;;3.08;;
68523;SDS011;55524;51.380;13.372;2023-12-20T01:08:03;4.93;;;3.40;;
68523;SDS011;55524;51.380;13.372;2023-12-20T01:10:30;4.38;;;3.70;;
68523;SDS011;55524;51.380;13.372;2023-12-20T01:12:57;5.10;;;4.03;;
68523;SDS011;55524;51.380;13.372;2023-12-20T01:15:23;4.00;;;3.60;;
68523;SDS011;55524;51.380;13.372;2023-12-20T01:17:49;5.22;;;4.07;;
68523;SDS011;55524;51.380;13.372;2023-12-20T01:20:26;4.93;;;4.35;;
68523;SDS011;55524;51.380;13.372;2023-12-20T01:22:52;3.88;;;3.50;;
68523;SDS011;55524;51.380;13.372;2023-12-20T01:25:18;6.30;;;4.22;;
68523;SDS011;55524;51.380;13.372;2023-12-20T01:27:45;4.28;;;3.88;;
68523;SDS011;55524;51.380;13.372;2023-12-20T01:30:11;5.28;;;3.88;;
68523;SDS011;55524;51.380;13.372;2023-12-20T01:32:38;4.78;;;3.88;;
68523;SDS011;55524;51.380;13.372;2023-12-20T01:35:04;4.47;;;3.72;;
68523;SDS011;55524;51.380;13.372;2023-12-20T01:37:31;4.10;;;3.70;;
68523;SDS011;55524;51.380;13.372;2023-12-20T01:39:57;4.80;;;3.58;;
68523;SDS011;55524;51.380;13.372;2023-12-20T01:42:24;5.07;;;3.63;;
68523;SDS011;55524;51.380;13.372;2023-12-20T01:44:50;4.32;;;3.78;;
68523;SDS011;55524;51.380;13.372;2023-12-20T01:47:16;5.55;;;3.63;;
68523;SDS011;55524;51.380;13.372;2023-12-20T01:49:45;6.15;;;3.65;;
68523;SDS011;55524;51.380;13.372;2023-12-20T01:55:35;5.10;;;3.88;;
68523;SDS011;55524;51.380;13.372;2023-12-20T01:58:04;5.68;;;3.45;;
68523;SDS011;55524;51.380;13.372;2023-12-20T02:00:32;4.70;;;3.22;;
68523;SDS011;55524;51.380;13.372;2023-12-20T02:03:03;4.45;;;3.13;;
68523;SDS011;55524;51.380;13.372;2023-12-20T02:05:30;3.75;;;3.42;;
68523;SDS011;55524;51.380;13.372;2023-12-20T02:07:57;3.58;;;3.08;;
68523;SDS011;55524;51.380;13.372;2023-12-20T02:10:24;3.05;;;2.85;;
68523;SDS011;55524;51.380;13.372;2023-12-20T02:12:50;3.25;;;2.70;;
68523;SDS011;55524;51.380;13.372;2023-12-20T02:15:37;3.10;;;2.80;;
68523;SDS011;55524;51.380;13.372;2023-12-20T02:18:04;4.28;;;2.30;;
68523;SDS011;55524;51.380;13.372;2023-12-20T02:20:31;3.13;;;2.85;;
68523;SDS011;55524;51.380;13.372;2023-12-20T02:22:57;5.30;;;2.78;;
68523;SDS011;55524;51.380;13.372;2023-12-20T02:25:23;3.00;;;2.67;;
68523;SDS011;55524;51.380;13.372;2023-12-20T02:27:50;3.00;;;2.55;;
68523;SDS011;55524;51.380;13.372;2023-12-20T02:30:17;3.05;;;2.80;;
68523;SDS011;55524;51.380;13.372;2023-12-20T02:32:43;3.35;;;2.55;;
68523;SDS011;55524;51.380;13.372;2023-12-20T02:35:09;3.33;;;2.70;;
68523;SDS011;55524;51.380;13.372;2023-12-20T02:37:36;2.92;;;2.63;;
68523;SDS011;55524;51.380;13.372;2023-12-20T02:40:02;2.45;;;2.25;;
68523;SDS011;55524;51.380;13.372;2023-12-20T02:42:29;3.13;;;2.70;;
68523;SDS011;55524;51.380;13.372;2023-12-20T02:44:56;3.08;;;2.80;;
68523;SDS011;55524;51.380;13.372;2023-12-20T02:47:22;2.47;;;2.20;;
68523;SDS011;55524;51.380;13.372;2023-12-20T02:49:48;2.65;;;2.45;;
68523;SDS011;55524;51.380;13.372;2023-12-20T02:52:15;2.60;;;2.40;;
68523;SDS011;55524;51.380;13.372;2023-12-20T02:54:41;2.78;;;2.33;;
68523;SDS011;55524;51.380;13.372;2023-12-20T02:57:08;4.35;;;2.25;;
68523;SDS011;55524;51.380;13.372;2023-12-20T02:59:34;2.33;;;2.15;;
68523;SDS011;55524;51.380;13.372;2023-12-20T03:02:00;2.40;;;2.20;;
68523;SDS011;55524;51.380;13.372;2023-12-20T03:04:27;4.90;;;2.17;;
68523;SDS011;55524;51.380;13.372;2023-12-20T03:06:53;2.40;;;2.08;;
68523;SDS011;55524;51.380;13.372;2023-12-20T03:09:19;2.15;;;1.92;;
68523;SDS011;55524;51.380;13.372;2023-12-20T03:11:46;2.58;;;2.08;;
68523;SDS011;55524;51.380;13.372;2023-12-20T03:14:12;2.40;;;2.20;;
68523;SDS011;55524;51.380;13.372;2023-12-20T03:16:38;3.40;;;1.92;;
68523;SDS011;55524;51.380;13.372;2023-12-20T03:19:04;2.10;;;1.90;;
68523;SDS011;55524;51.380;13.372;2023-12-20T03:21:31;1.70;;;1.60;;
68523;SDS011;55524;51.380;13.372;2023-12-20T03:23:57;2.00;;;1.85;;
68523;SDS011;55524;51.380;13.372;2023-12-20T03:26:23;2.05;;;1.80;;
68523;SDS011;55524;51.380;13.372;2023-12-20T03:28:50;1.98;;;1.77;;
68523;SDS011;55524;51.380;13.372;2023-12-20T03:31:17;2.30;;;2.10;;
68523;SDS011;55524;51.380;13.372;2023-12-20T03:33:43;1.70;;;1.60;;
68523;SDS011;55524;51.380;13.372;2023-12-20T03:36:09;1.70;;;1.60;;
68523;SDS011;55524;51.380;13.372;2023-12-20T03:38:36;1.90;;;1.80;;
68523;SDS011;55524;51.380;13.372;2023-12-20T03:41:02;1.83;;;1.67;;
68523;SDS011;55524;51.380;13.372;2023-12-20T03:43:29;2.10;;;1.90;;
68523;SDS011;55524;51.380;13.372;2023-12-20T03:45:56;1.80;;;1.70;;
68523;SDS011;55524;51.380;13.372;2023-12-20T03:48:23;2.53;;;2.00;;
68523;SDS011;55524;51.380;13.372;2023-12-20T03:50:50;2.33;;;2.00;;
68523;SDS011;55524;51.380;13.372;2023-12-20T03:53:16;2.95;;;1.92;;
68523;SDS011;55524;51.380;13.372;2023-12-20T03:55:45;2.00;;;1.80;;
68523;SDS011;55524;51.380;13.372;2023-12-20T03:58:12;2.42;;;1.65;;
68523;SDS011;55524;51.380;13.372;2023-12-20T04:00:38;5.30;;;1.77;;
68523;SDS011;55524;51.380;13.372;2023-12-20T04:03:04;2.10;;;1.90;;
68523;SDS011;55524;51.380;13.372;2023-12-20T04:05:32;2.38;;;2.10;;
68523;SDS011;55524;51.380;13.372;2023-12-20T04:07:59;2.10;;;1.90;;
68523;SDS011;55524;51.380;13.372;2023-12-20T04:10:26;1.85;;;1.75;;
68523;SDS011;55524;51.380;13.372;2023-12-20T04:12:53;3.45;;;1.90;;
68523;SDS011;55524;51.380;13.372;2023-12-20T04:15:20;2.47;;;1.92;;
68523;SDS011;55524;51.380;13.372;2023-12-20T04:17:46;1.60;;;1.50;;
68523;SDS011;55524;51.380;13.372;2023-12-20T04:20:13;3.72;;;1.77;;
68523;SDS011;55524;51.380;13.372;2023-12-20T04:22:39;1.60;;;1.50;;
68523;SDS011;55524;51.380;13.372;2023-12-20T04:25:05;1.70;;;1.60;;
68523;SDS011;55524;51.380;13.372;2023-12-20T04:27:33;1.83;;;1.73;;
68523;SDS011;55524;51.380;13.372;2023-12-20T04:30:00;1.83;;;1.73;;
68523;SDS011;55524;51.380;13.372;2023-12-20T04:32:26;1.67;;;1.58;;
68523;SDS011;55524;51.380;13.372;2023-12-20T04:34:52;1.65;;;1.45;;
68523;SDS011;55524;51.380;13.372;2023-12-20T04:37:19;1.77;;;1.67;;
68523;SDS011;55524;51.380;13.372;2023-12-20T04:39:45;1.63;;;1.52;;
68523;SDS011;55524;51.380;13.372;2023-12-20T04:42:12;1.60;;;1.50;;
68523;SDS011;55524;51.380;13.372;2023-12-20T04:44:38;3.05;;;1.58;;
68523;SDS011;55524;51.380;13.372;2023-12-20T04:47:04;1.58;;;1.48;;
68523;SDS011;55524;51.380;13.372;2023-12-20T04:49:31;1.70;;;1.60;;
68523;SDS011;55524;51.380;13.372;2023-12-20T04:51:57;3.53;;;1.52;;
68523;SDS011;55524;51.380;13.372;2023-12-20T05:00:29;1.90;;;1.70;;
68523;SDS011;55524;51.380;13.372;2023-12-20T05:02:55;1.60;;;1.50;;
68523;SDS011;55524;51.380;13.372;2023-12-20T05:05:21;1.65;;;1.55;;
68523;SDS011;55524;51.380;13.372;2023-12-20T05:07:51;1.50;;;1.40;;
68523;SDS011;55524;51.380;13.372;2023-12-20T05:10:17;2.13;;;1.90;;
68523;SDS011;55524;51.380;13.372;2023-12-20T05:12:44;1.80;;;1.70;;
68523;SDS011;55524;51.380;13.372;2023-12-20T05:15:13;1.88;;;1.75;;
68523;SDS011;55524;51.380;13.372;2023-12-20T05:17:39;1.75;;;1.65;;
68523;SDS011;55524;51.380;13.372;2023-12-20T05:20:06;1.60;;;1.50;;
68523;SDS011;55524;51.380;13.372;2023-12-20T05:22:33;1.70;;;1.60;;
68523;SDS011;55524;51.380;13.372;2023-12-20T05:24:59;1.50;;;1.40;;
68523;SDS011;55524;51.380;13.372;2023-12-20T05:27:25;1.58;;;1.48;;
68523;SDS011;55524;51.380;13.372;2023-12-20T05:29:52;2.00;;;1.90;;
68523;SDS011;55524;51.380;13.372;2023-12-20T05:32:22;1.55;;;1.45;;
68523;SDS011;55524;51.380;13.372;2023-12-20T05:34:49;1.73;;;1.63;;
68523;SDS011;55524;51.380;13.372;2023-12-20T05:37:15;1.90;;;1.80;;
68523;SDS011;55524;51.380;13.372;2023-12-20T05:39:41;1.92;;;1.80;;
68523;SDS011;55524;51.380;13.372;2023-12-20T05:42:08;2.53;;;1.48;;
68523;SDS011;55524;51.380;13.372;2023-12-20T05:44:34;2.40;;;2.10;;
68523;SDS011;55524;51.380;13.372;2023-12-20T05:47:01;2.47;;;2.28;;
68523;SDS011;55524;51.380;13.372;2023-12-20T05:49:27;2.75;;;2.25;;
68523;SDS011;55524;51.380;13.372;2023-12-20T05:51:54;3.25;;;2.30;;
68523;SDS011;55524;51.380;13.372;2023-12-20T05:54:20;2.42;;;2.22;;
68523;SDS011;55524;51.380;13.372;2023-12-20T05:56:47;2.72;;;2.53;;
68523;SDS011;55524;51.380;13.372;2023-12-20T05:59:13;2.60;;;2.40;;
68523;SDS011;55524;51.380;13.372;2023-12-20T06:01:39;3.13;;;2.92;;
68523;SDS011;55524;51.380;13.372;2023-12-20T06:04:06;3.22;;;2.90;;
68523;SDS011;55524;51.380;13.372;2023-12-20T06:06:32;3.67;;;3.33;;
68523;SDS011;55524;51.380;13.372;2023-12-20T06:08:58;3.60;;;3.30;;
68523;SDS011;55524;51.380;13.372;2023-12-20T06:11:25;3.47;;;3.17;;
68523;SDS011;55524;51.380;13.372;2023-12-20T06:13:52;4.13;;;3.55;;
68523;SDS011;55524;51.380;13.372;2023-12-20T06:16:19;5.53;;;3.85;;
68523;SDS011;55524;51.380;13.372;2023-12-20T06:18:45;3.60;;;3.30;;
68523;SDS011;55524;51.380;13.372;2023-12-20T06:21:11;3.75;;;3.40;;
68523;SDS011;55524;51.380;13.372;2023-12-20T06:23:38;4.03;;;3.60;;
68523;SDS011;55524;51.380;13.372;2023-12-20T06:26:04;3.72;;;3.42;;
68523;SDS011;55524;51.380;13.372;2023-12-20T06:28:31;4.45;;;3.33;;
68523;SDS011;55524;51.380;13.372;2023-12-20T06:30:57;3.65;;;3.35;;
68523;SDS011;55524;51.380;13.372;2023-12-20T06:33:31;6.20;;;3.25;;
68523;SDS011;55524;51.380;13.372;2023-12-20T06:35:57;3.58;;;3.22;;
68523;SDS011;55524;51.380;13.372;2023-12-20T06:38:23;2.90;;;2.65;;
68523;SDS011;55524;51.380;13.372;2023-12-20T06:40:50;4.38;;;3.08;;
68523;SDS011;55524;51.380;13.372;2023-12-20T06:43:16;3.65;;;2.90;;
68523;SDS011;55524;51.380;13.372;2023-12-20T06:45:42;3.00;;;2.80;;
68523;SDS011;55524;51.380;13.372;2023-12-20T06:48:09;3.30;;;3.00;;
68523;SDS011;55524;51.380;13.372;2023-12-20T06:50:37;2.80;;;2.60;;
68523;SDS011;55524;51.380;13.372;2023-12-20T06:53:05;5.18;;;2.60;;
68523;SDS011;55524;51.380;13.372;2023-12-20T06:55:35;6.30;;;2.70;;
68523;SDS011;55524;51.380;13.372;2023-12-20T06:58:02;5.13;;;2.60;;
68523;SDS011;55524;51.380;13.372;2023-12-20T07:00:29;4.22;;;2.42;;
68523;SDS011;55524;51.380;13.372;2023-12-20T07:02:57;8.80;;;2.90;;
68523;SDS011;55524;51.380;13.372;2023-12-20T07:05:26;7.38;;;2.83;;
68523;SDS011;55524;51.380;13.372;2023-12-20T07:07:53;3.47;;;2.38;;
68523;SDS011;55524;51.380;13.372;2023-12-20T07:10:19;5.55;;;2.55;;
68523;SDS011;55524;51.380;13.372;2023-12-20T07:12:49;3.08;;;2.40;;
68523;SDS011;55524;51.380;13.372;2023-12-20T07:15:19;3.85;;;2.70;;
68523;SDS011;55524;51.380;13.372;2023-12-20T07:17:45;5.70;;;2.28;;
68523;SDS011;55524;51.380;13.372;2023-12-20T07:20:11;2.13;;;1.92;;
68523;SDS011;55524;51.380;13.372;2023-12-20T07:22:38;3.50;;;2.17;;
68523;SDS011;55524;51.380;13.372;2023-12-20T07:25:04;5.93;;;2.38;;
68523;SDS011;55524;51.380;13.372;2023-12-20T07:27:31;2.92;;;2.20;;
68523;SDS011;55524;51.380;13.372;2023-12-20T07:29:58;3.53;;;2.20;;
68523;SDS011;55524;51.380;13.372;2023-12-20T07:32:24;2.60;;;1.92;;
68523;SDS011;55524;51.380;13.372;2023-12-20T07:34:51;5.85;;;1.83;;
68523;SDS011;55524;51.380;13.372;2023-12-20T07:37:18;5.88;;;2.30;;
68523;SDS011;55524;51.380;13.372;2023-12-20T07:39:45;3.03;;;2.30;;
68523;SDS011;55524;51.380;13.372;2023-12-20T07:42:11;6.78;;;2.65;;
68523;SDS011;55524;51.380;13.372;2023-12-20T07:44:38;5.25;;;3.28;;
68523;SDS011;55524;51.380;13.372;2023-12-20T07:47:07;4.28;;;3.25;;
68523;SDS011;55524;51.380;13.372;2023-12-20T07:49:33;4.95;;;3.70;;
68523;SDS011;55524;51.380;13.372;2023-12-20T07:52:08;6.13;;;4.10;;
68523;SDS011;55524;51.380;13.372;2023-12-20T07:54:35;5.32;;;4.22;;
68523;SDS011;55524;51.380;13.372;2023-12-20T08:00:23;6.40;;;4.43;;
68523;SDS011;55524;51.380;13.372;2023-12-20T08:02:49;5.20;;;3.85;;
68523;SDS011;55524;51.380;13.372;2023-12-20T08:05:16;5.25;;;3.65;;
68523;SDS011;55524;51.380;13.372;2023-12-20T08:07:42;6.20;;;3.85;;
68523;SDS011;55524;51.380;13.372;2023-12-20T08:10:19;4.65;;;3.33;;
68523;SDS011;55524;51.380;13.372;2023-12-20T08:12:45;3.85;;;3.35;;
68523;SDS011;55524;51.380;13.372;2023-12-20T08:15:11;3.00;;;2.63;;
68523;SDS011;55524;51.380;13.372;2023-12-20T08:17:38;4.25;;;2.70;;
68523;SDS011;55524;51.380;13.372;2023-12-20T08:20:04;3.28;;;2.40;;
68523;SDS011;55524;51.380;13.372;2023-12-20T08:22:31;2.85;;;2.33;;
68523;SDS011;55524;51.380;13.372;2023-12-20T08:24:57;2.97;;;2.30;;
68523;SDS011;55524;51.380;13.372;2023-12-20T08:27:24;4.40;;;2.17;;
68523;SDS011;55524;51.380;13.372;2023-12-20T08:29:51;4.30;;;2.47;;
68523;SDS011;55524;51.380;13.372;2023-12-20T08:32:17;1.90;;;1.67;;
68523;SDS011;55524;51.380;13.372;2023-12-20T08:34:43;1.80;;;1.70;;
68523;SDS011;55524;51.380;13.372;2023-12-20T08:37:09;1.63;;;1.52;;
68523;SDS011;55524;51.380;13.372;2023-12-20T08:39:36;2.13;;;1.60;;
68523;SDS011;55524;51.380;13.372;2023-12-20T08:42:02;3.53;;;1.60;;
68523;SDS011;55524;51.380;13.372;2023-12-20T08:44:29;2.88;;;1.40;;
68523;SDS011;55524;51.380;13.372;2023-12-20T08:46:55;2.50;;;1.10;;
68523;SDS011;55524;51.380;13.372;2023-12-20T08:49:25;7.82;;;1.17;;
68523;SDS011;55524;51.380;13.372;2023-12-20T08:52:05;5.53;;;1.20;;
68523;SDS011;55524;51.380;13.372;2023-12-20T08:54:31;4.25;;;1.08;;
68523;SDS011;55524;51.380;13.372;2023-12-20T08:56:57;1.63;;;0.82;;
68523;SDS011;55524;51.380;13.372;2023-12-20T08:59:24;1.95;;;1.02;;
68523;SDS011;55524;51.380;13.372;2023-12-20T09:01:50;2.60;;;0.88;;
68523;SDS011;55524;51.380;13.372;2023-12-20T09:04:20;2.42;;;0.90;;
68523;SDS011;55524;51.380;13.372;2023-12-20T09:06:46;2.90;;;0.95;;
68523;SDS011;55524;51.380;13.372;2023-12-20T09:09:12;1.35;;;0.98;;
68523;SDS011;55524;51.380;13.372;2023-12-20T09:11:39;2.08;;;0.93;;
68523;SDS011;55524;51.380;13.372;2023-12-20T09:14:07;2.00;;;1.00;;
68523;SDS011;55524;51.380;13.372;2023-12-20T09:16:33;2.90;;;0.90;;
68523;SDS011;55524;51.380;13.372;2023-12-20T09:19:00;5.78;;;1.15;;
68523;SDS011;55524;51.380;13.372;2023-12-20T09:21:26;4.18;;;0.95;;
68523;SDS011;55524;51.380;13.372;2023-12-20T09:23:55;3.65;;;0.88;;
68523;SDS011;55524;51.380;13.372;2023-12-20T09:26:22;4.30;;;1.00;;
68523;SDS011;55524;51.380;13.372;2023-12-20T09:28:48;3.50;;;0.93;;
68523;SDS011;55524;51.380;13.372;2023-12-20T09:31:14;6.88;;;1.13;;
68523;SDS011;55524;51.380;13.372;2023-12-20T09:33:41;1.95;;;1.05;;
68523;SDS011;55524;51.380;13.372;2023-12-20T09:36:07;2.70;;;0.98;;
68523;SDS011;55524;51.380;13.372;2023-12-20T09:38:33;5.53;;;0.93;;
68523;SDS011;55524;51.380;13.372;2023-12-20T09:41:00;3.33;;;1.85;;
68523;SDS011;55524;51.380;13.372;2023-12-20T09:43:29;6.70;;;1.00;;
68523;SDS011;55524;51.380;13.372;2023-12-20T09:46:00;3.47;;;0.90;;
68523;SDS011;55524;51.380;13.372;2023-12-20T09:48:33;1.70;;;1.13;;
68523;SDS011;55524;51.380;13.372;2023-12-20T09:51:03;3.55;;;1.08;;
68523;SDS011;55524;51.380;13.372;2023-12-20T09:53:29;2.63;;;1.00;;
68523;SDS011;55524;51.380;13.372;2023-12-20T09:55:58;2.70;;;1.13;;
68523;SDS011;55524;51.380;13.372;2023-12-20T09:58:25;2.47;;;0.90;;
68523;SDS011;55524;51.380;13.372;2023-12-20T10:00:52;2.25;;;0.98;;
68523;SDS011;55524;51.380;13.372;2023-12-20T10:03:20;2.88;;;0.90;;
68523;SDS011;55524;51.380;13.372;2023-12-20T10:05:54;2.97;;;1.10;;
68523;SDS011;55524;51.380;13.372;2023-12-20T10:08:23;3.63;;;0.95;;
68523;SDS011;55524;51.380;13.372;2023-12-20T10:10:50;5.60;;;1.05;;
68523;SDS011;55524;51.380;13.372;2023-12-20T10:13:27;3.10;;;1.17;;
68523;SDS011;55524;51.380;13.372;2023-12-20T10:15:54;2.90;;;1.05;;
68523;SDS011;55524;51.380;13.372;2023-12-20T10:18:22;4.13;;;1.13;;
68523;SDS011;55524;51.380;13.372;2023-12-20T10:20:48;2.90;;;1.20;;
68523;SDS011;55524;51.380;13.372;2023-12-20T10:23:15;8.00;;;1.30;;
68523;SDS011;55524;51.380;13.372;2023-12-20T10:25:43;2.60;;;1.13;;
68523;SDS011;55524;51.380;13.372;2023-12-20T10:28:20;3.92;;;0.95;;
68523;SDS011;55524;51.380;13.372;2023-12-20T10:30:48;5.32;;;1.45;;
68523;SDS011;55524;51.380;13.372;2023-12-20T10:33:23;4.32;;;1.20;;
68523;SDS011;55524;51.380;13.372;2023-12-20T10:35:50;3.72;;;1.20;;
68523;SDS011;55524;51.380;13.372;2023-12-20T10:38:19;2.78;;;1.02;;
68523;SDS011;55524;51.380;13.372;2023-12-20T10:40:45;3.53;;;0.90;;
68523;SDS011;55524;51.380;13.372;2023-12-20T10:43:22;2.55;;;1.20;;
68523;SDS011;55524;51.380;13.372;2023-12-20T10:45:51;5.00;;;1.50;;
68523;SDS011;55524;51.380;13.372;2023-12-20T10:48:18;3.13;;;1.58;;
68523;SDS011;55524;51.380;13.372;2023-12-20T10:50:46;3.22;;;1.40;;
68523;SDS011;55524;51.380;13.372;2023-12-20T10:53:14;2.25;;;1.30;;
68523;SDS011;55524;51.380;13.372;2023-12-20T10:55:41;3.95;;;1.25;;
68523;SDS011;55524;51.380;13.372;2023-12-20T10:58:09;7.05;;;1.48;;
68523;SDS011;55524;51.380;13.372;2023-12-20T11:00:40;3.58;;;1.20;;
68523;SDS011;55524;51.380;13.372;2023-12-20T11:03:10;4.95;;;1.50;;
68523;SDS011;55524;51.380;13.372;2023-12-20T11:05:52;4.57;;;1.20;;
68523;SDS011;55524;51.380;13.372;2023-12-20T11:08:36;2.83;;;1.30;;
68523;SDS011;55524;51.380;13.372;2023-12-20T11:11:13;5.45;;;1.50;;
68523;SDS011;55524;51.380;13.372;2023-12-20T11:14:01;3.53;;;1.33;;
68523;SDS011;55524;51.380;13.372;2023-12-20T11:17:02;3.15;;;1.15;;
68523;SDS011;55524;51.380;13.372;2023-12-20T11:22:27;2.15;;;1.38;;
68523;SDS011;55524;51.380;13.372;2023-12-20T11:25:05;4.28;;;1.27;;
68523;SDS011;55524;51.380;13.372;2023-12-20T11:27:35;3.45;;;1.35;;
68523;SDS011;55524;51.380;13.372;2023-12-20T11:30:05;3.35;;;1.35;;
68523;SDS011;55524;51.380;13.372;2023-12-20T11:32:34;7.90;;;1.50;;
68523;SDS011;55524;51.380;13.372;2023-12-20T11:35:17;3.60;;;1.48;;
68523;SDS011;55524;51.380;13.372;2023-12-20T11:37:45;4.93;;;1.55;;
68523;SDS011;55524;51.380;13.372;2023-12-20T11:40:15;8.25;;;1.50;;
68523;SDS011;55524;51.380;13.372;2023-12-20T11:43:02;8.32;;;1.60;;
68523;SDS011;55524;51.380;13.372;2023-12-20T11:45:30;1.30;;;1.20;;
68523;SDS011;55524;51.380;13.372;2023-12-20T11:48:02;4.88;;;1.48;;
68523;SDS011;55524;51.380;13.372;2023-12-20T11:50:29;6.03;;;1.33;;
68523;SDS011;55524;51.380;13.372;2023-12-20T11:52:58;3.33;;;1.30;;
68523;SDS011;55524;51.380;13.372;2023-12-20T11:55:25;2.83;;;1.33;;
68523;SDS011;55524;51.380;13.372;2023-12-20T11:57:51;4.90;;;1.30;;
68523;SDS011;55524;51.380;13.372;2023-12-20T12:00:18;4.38;;;1.23;;
68523;SDS011;55524;51.380;13.372;2023-12-20T12:02:55;1.25;;;1.10;;
68523;SDS011;55524;51.380;13.372;2023-12-20T12:05:24;4.72;;;1.40;;
68523;SDS011;55524;51.380;13.372;2023-12-20T12:07:51;3.05;;;1.30;;
68523;SDS011;55524;51.380;13.372;2023-12-20T12:10:18;4.97;;;1.33;;
68523;SDS011;55524;51.380;13.372;2023-12-20T12:12:44;8.25;;;1.27;;
68523;SDS011;55524;51.380;13.372;2023-12-20T12:15:11;3.78;;;1.00;;
68523;SDS011;55524;51.380;13.372;2023-12-20T12:17:38;3.35;;;1.20;;
68523;SDS011;55524;51.380;13.372;2023-12-20T12:20:04;3.63;;;1.38;;
68523;SDS011;55524;51.380;13.372;2023-12-20T12:22:32;4.60;;;1.30;;
68523;SDS011;55524;51.380;13.372;2023-12-20T12:24:59;4.55;;;1.38;;
68523;SDS011;55524;51.380;13.372;2023-12-20T12:27:38;4.80;;;1.08;;
68523;SDS011;55524;51.380;13.372;2023-12-20T12:30:08;5.75;;;1.10;;
68523;SDS011;55524;51.380;13.372;2023-12-20T12:32:35;2.03;;;0.98;;
68523;SDS011;55524;51.380;13.372;2023-12-20T12:35:03;1.85;;;1.17;;
68523;SDS011;55524;51.380;13.372;2023-12-20T12:37:31;1.20;;;0.90;;
68523;SDS011;55524;51.380;13.372;2023-12-20T12:40:00;3.53;;;1.10;;
68523;SDS011;55524;51.380;13.372;2023-12-20T12:42:30;2.97;;;1.08;;
68523;SDS011;55524;51.380;13.372;2023-12-20T12:44:56;3.35;;;1.08;;
68523;SDS011;55524;51.380;13.372;2023-12-20T12:47:22;5.18;;;1.40;;
68523;SDS011;55524;51.380;13.372;2023-12-20T12:49:49;4.40;;;1.00;;
68523;SDS011;55524;51.380;13.372;2023-12-20T12:52:18;3.65;;;1.08;;
68523;SDS011;55524;51.380;13.372;2023-12-20T12:54:48;3.80;;;1.45;;
68523;SDS011;55524;51.380;13.372;2023-12-20T12:57:15;4.63;;;1.10;;
68523;SDS011;55524;51.380;13.372;2023-12-20T12:59:42;5.55;;;1.17;;
68523;SDS011;55524;51.380;13.372;2023-12-20T13:02:11;3.22;;;1.15;;
68523;SDS011;55524;51.380;13.372;2023-12-20T13:04:38;4.35;;;1.20;;
68523;SDS011;55524;51.380;13.372;2023-12-20T13:07:06;5.43;;;1.17;;
68523;SDS011;55524;51.380;13.372;2023-12-20T13:09:35;3.05;;;0.90;;
68523;SDS011;55524;51.380;13.372;2023-12-20T13:12:02;4.13;;;1.25;;
68523;SDS011;55524;51.380;13.372;2023-12-20T13:14:31;1.33;;;0.98;;
68523;SDS011;55524;51.380;13.372;2023-12-20T13:17:00;2.73;;;1.00;;
68523;SDS011;55524;51.380;13.372;2023-12-20T13:19:27;3.78;;;0.93;;
68523;SDS011;55524;51.380;13.372;2023-12-20T13:21:53;5.13;;;1.20;;
68523;SDS011;55524;51.380;13.372;2023-12-20T13:24:20;5.82;;;1.20;;
68523;SDS011;55524;51.380;13.372;2023-12-20T13:26:46;11.15;;;1.77;;
68523;SDS011;55524;51.380;13.372;2023-12-20T13:29:12;4.78;;;1.00;;
68523;SDS011;55524;51.380;13.372;2023-12-20T13:31:41;3.42;;;1.20;;
68523;SDS011;55524;51.380;13.372;2023-12-20T13:34:08;4.00;;;1.10;;
68523;SDS011;55524;51.380;13.372;2023-12-20T13:36:34;1.83;;;0.85;;
68523;SDS011;55524;51.380;13.372;2023-12-20T13:39:01;3.92;;;1.10;;
68523;SDS011;55524;51.380;13.372;2023-12-20T13:41:30;4.43;;;1.13;;
68523;SDS011;55524;51.380;13.372;2023-12-20T13:43:56;4.13;;;1.20;;
68523;SDS011;55524;51.380;13.372;2023-12-20T13:46:23;3.20;;;1.00;;
68523;SDS011;55524;51.380;13.372;2023-12-20T13:48:49;1.95;;;1.10;;
68523;SDS011;55524;51.380;13.372;2023-12-20T13:51:16;1.25;;;1.05;;
68523;SDS011;55524;51.380;13.372;2023-12-20T13:53:46;4.05;;;1.17;;
68523;SDS011;55524;51.380;13.372;2023-12-20T13:56:16;2.90;;;1.10;;
68523;SDS011;55524;51.380;13.372;2023-12-20T13:58:45;3.58;;;1.10;;
68523;SDS011;55524;51.380;13.372;2023-12-20T14:01:16;1.55;;;1.10;;
68523;SDS011;55524;51.380;13.372;2023-12-20T14:03:42;5.95;;;1.10;;
68523;SDS011;55524;51.380;13.372;2023-12-20T14:06:08;2.20;;;1.10;;
68523;SDS011;55524;51.380;13.372;2023-12-20T14:08:35;2.85;;;1.02;;
68523;SDS011;55524;51.380;13.372;2023-12-20T14:16:56;3.75;;;1.10;;
68523;SDS011;55524;51.380;13.372;2023-12-20T14:19:22;2.25;;;1.17;;
68523;SDS011;55524;51.380;13.372;2023-12-20T14:21:52;1.25;;;1.00;;
68523;SDS011;55524;51.380;13.372;2023-12-20T14:24:18;6.22;;;1.10;;
68523;SDS011;55524;51.380;13.372;2023-12-20T14:26:45;3.28;;;1.17;;
68523;SDS011;55524;51.380;13.372;2023-12-20T14:29:14;1.33;;;1.10;;
68523;SDS011;55524;51.380;13.372;2023-12-20T14:31:43;5.30;;;1.10;;
68523;SDS011;55524;51.380;13.372;2023-12-20T14:34:09;3.38;;;1.13;;
68523;SDS011;55524;51.380;13.372;2023-12-20T14:36:36;4.82;;;1.23;;
68523;SDS011;55524;51.380;13.372;2023-12-20T14:39:03;2.20;;;1.00;;
68523;SDS011;55524;51.380;13.372;2023-12-20T14:41:30;3.65;;;0.98;;
68523;SDS011;55524;51.380;13.372;2023-12-20T14:43:59;2.35;;;0.70;;
68523;SDS011;55524;51.380;13.372;2023-12-20T14:46:29;4.15;;;1.00;;
68523;SDS011;55524;51.380;13.372;2023-12-20T14:53:18;3.22;;;1.10;;
68523;SDS011;55524;51.380;13.372;2023-12-20T14:56:07;2.92;;;0.90;;
68523;SDS011;55524;51.380;13.372;2023-12-20T14:58:34;1.60;;;0.93;;
68523;SDS011;55524;51.380;13.372;2023-12-20T15:01:11;2.53;;;0.98;;
68523;SDS011;55524;51.380;13.372;2023-12-20T15:03:46;4.22;;;1.23;;